sensor_id;sensor_type;location;lat;lon;timestamp;P1;durP1;ratioP1;P2;durP2;ratioP2
75887;SDS011;64562;55.662;37.300;2022-12-08T00:00:49;73.45;;;39.90;;
75887;SDS011;64562;55.662;37.300;2022-12-08T00:03:15;73.35;;;41.78;;
75887;SDS011;64562;55.662;37.300;2022-12-08T00:05:45;68.03;;;37.10;;
75887;SDS011;64562;55.662;37.300;2022-12-08T00:08:29;65.32;;;36.78;;
75887;SDS011;64562;55.662;37.300;2022-12-08T00:11:13;69.43;;;38.58;;
75887;SDS011;64562;55.662;37.300;2022-12-08T00:13:41;73.43;;;40.08;;
75887;SDS011;64562;55.662;37.300;2022-12-08T00:16:08;67.32;;;37.30;;
75887;SDS011;64562;55.662;37.300;2022-12-08T00:18:35;71.13;;;39.25;;
75887;SDS011;64562;55.662;37.300;2022-12-08T00:21:02;73.25;;;40.28;;
75887;SDS011;64562;55.662;37.300;2022-12-08T00:23:28;75.40;;;42.17;;
75887;SDS011;64562;55.662;37.300;2022-12-08T00:25:55;77.32;;;40.55;;
75887;SDS011;64562;55.662;37.300;2022-12-08T00:28:22;73.28;;;40.25;;
75887;SDS011;64562;55.662;37.300;2022-12-08T00:30:50;71.10;;;38.70;;
75887;SDS011;64562;55.662;37.300;2022-12-08T00:33:16;77.97;;;41.90;;
75887;SDS011;64562;55.662;37.300;2022-12-08T00:35:43;74.47;;;40.47;;
75887;SDS011;64562;55.662;37.300;2022-12-08T00:38:09;80.13;;;43.15;;
75887;SDS011;64562;55.662;37.300;2022-12-08T00:40:36;72.50;;;41.40;;
75887;SDS011;64562;55.662;37.300;2022-12-08T00:43:03;72.43;;;41.10;;
75887;SDS011;64562;55.662;37.300;2022-12-08T00:45:29;68.75;;;37.83;;
75887;SDS011;64562;55.662;37.300;2022-12-08T00:47:57;74.93;;;40.90;;
75887;SDS011;64562;55.662;37.300;2022-12-08T00:50:24;75.70;;;40.95;;
75887;SDS011;64562;55.662;37.300;2022-12-08T00:52:50;75.18;;;41.13;;
75887;SDS011;64562;55.662;37.300;2022-12-08T00:55:17;76.75;;;40.85;;
75887;SDS011;64562;55.662;37.300;2022-12-08T00:57:43;83.10;;;44.10;;
75887;SDS011;64562;55.662;37.300;2022-12-08T01:00:10;78.10;;;42.53;;
75887;SDS011;64562;55.662;37.300;2022-12-08T01:02:37;78.78;;;43.20;;
75887;SDS011;64562;55.662;37.300;2022-12-08T01:05:06;78.15;;;41.85;;
75887;SDS011;64562;55.662;37.300;2022-12-08T01:07:32;77.00;;;42.30;;
75887;SDS011;64562;55.662;37.300;2022-12-08T01:09:59;77.22;;;43.08;;
75887;SDS011;64562;55.662;37.300;2022-12-08T01:12:27;77.68;;;41.67;;
75887;SDS011;64562;55.662;37.300;2022-12-08T01:14:54;78.07;;;42.63;;
75887;SDS011;64562;55.662;37.300;2022-12-08T01:17:20;78.80;;;42.80;;
75887;SDS011;64562;55.662;37.300;2022-12-08T01:19:47;71.40;;;38.10;;
75887;SDS011;64562;55.662;37.300;2022-12-08T01:22:15;76.28;;;41.20;;
75887;SDS011;64562;55.662;37.300;2022-12-08T01:24:42;74.78;;;41.50;;
75887;SDS011;64562;55.662;37.300;2022-12-08T01:27:08;70.13;;;39.33;;
75887;SDS011;64562;55.662;37.300;2022-12-08T01:29:35;71.25;;;38.25;;
75887;SDS011;64562;55.662;37.300;2022-12-08T01:32:02;69.18;;;39.28;;
75887;SDS011;64562;55.662;37.300;2022-12-08T01:34:28;71.25;;;38.63;;
75887;SDS011;64562;55.662;37.300;2022-12-08T01:36:55;68.70;;;36.20;;
75887;SDS011;64562;55.662;37.300;2022-12-08T01:39:23;65.07;;;36.10;;
75887;SDS011;64562;55.662;37.300;2022-12-08T01:41:49;62.25;;;35.35;;
75887;SDS011;64562;55.662;37.300;2022-12-08T01:47:01;62.50;;;34.03;;
75887;SDS011;64562;55.662;37.300;2022-12-08T01:49:28;55.75;;;31.13;;
75887;SDS011;64562;55.662;37.300;2022-12-08T01:51:58;65.68;;;34.67;;
75887;SDS011;64562;55.662;37.300;2022-12-08T01:54:28;62.22;;;34.55;;
75887;SDS011;64562;55.662;37.300;2022-12-08T01:56:56;56.40;;;33.72;;
75887;SDS011;64562;55.662;37.300;2022-12-08T01:59:24;56.40;;;32.38;;
75887;SDS011;64562;55.662;37.300;2022-12-08T02:01:51;58.25;;;32.42;;
75887;SDS011;64562;55.662;37.300;2022-12-08T02:04:17;51.80;;;30.77;;
75887;SDS011;64562;55.662;37.300;2022-12-08T02:06:44;52.95;;;29.95;;
75887;SDS011;64562;55.662;37.300;2022-12-08T02:09:12;55.65;;;30.58;;
75887;SDS011;64562;55.662;37.300;2022-12-08T02:11:41;50.72;;;29.80;;
75887;SDS011;64562;55.662;37.300;2022-12-08T02:14:07;50.60;;;28.25;;
75887;SDS011;64562;55.662;37.300;2022-12-08T02:16:37;53.90;;;27.70;;
75887;SDS011;64562;55.662;37.300;2022-12-08T02:19:13;49.40;;;28.70;;
75887;SDS011;64562;55.662;37.300;2022-12-08T02:21:44;48.22;;;26.45;;
75887;SDS011;64562;55.662;37.300;2022-12-08T02:24:13;46.47;;;25.95;;
75887;SDS011;64562;55.662;37.300;2022-12-08T02:35:13;44.58;;;24.80;;
75887;SDS011;64562;55.662;37.300;2022-12-08T02:37:42;44.30;;;25.98;;
75887;SDS011;64562;55.662;37.300;2022-12-08T02:40:12;38.38;;;21.77;;
75887;SDS011;64562;55.662;37.300;2022-12-08T02:42:41;44.47;;;23.75;;
75887;SDS011;64562;55.662;37.300;2022-12-08T02:45:11;35.72;;;20.65;;
75887;SDS011;64562;55.662;37.300;2022-12-08T02:47:38;39.78;;;22.65;;
75887;SDS011;64562;55.662;37.300;2022-12-08T02:50:06;39.17;;;22.73;;
75887;SDS011;64562;55.662;37.300;2022-12-08T02:52:41;41.80;;;23.38;;
75887;SDS011;64562;55.662;37.300;2022-12-08T02:55:11;38.92;;;23.98;;
75887;SDS011;64562;55.662;37.300;2022-12-08T02:57:41;38.00;;;21.55;;
75887;SDS011;64562;55.662;37.300;2022-12-08T03:00:10;38.58;;;20.98;;
75887;SDS011;64562;55.662;37.300;2022-12-08T03:02:42;36.15;;;20.52;;
75887;SDS011;64562;55.662;37.300;2022-12-08T03:05:12;35.08;;;20.63;;
75887;SDS011;64562;55.662;37.300;2022-12-08T03:07:46;35.35;;;20.30;;
75887;SDS011;64562;55.662;37.300;2022-12-08T03:10:16;36.95;;;20.42;;
75887;SDS011;64562;55.662;37.300;2022-12-08T03:12:45;33.35;;;19.08;;
75887;SDS011;64562;55.662;37.300;2022-12-08T03:15:14;31.88;;;18.42;;
75887;SDS011;64562;55.662;37.300;2022-12-08T03:17:44;33.45;;;19.58;;
75887;SDS011;64562;55.662;37.300;2022-12-08T03:20:12;34.70;;;23.00;;
75887;SDS011;64562;55.662;37.300;2022-12-08T03:22:39;31.05;;;18.05;;
75887;SDS011;64562;55.662;37.300;2022-12-08T03:25:08;34.63;;;19.48;;
75887;SDS011;64562;55.662;37.300;2022-12-08T03:27:35;28.63;;;16.67;;
75887;SDS011;64562;55.662;37.300;2022-12-08T03:30:02;29.08;;;18.38;;
75887;SDS011;64562;55.662;37.300;2022-12-08T03:32:29;29.17;;;18.38;;
75887;SDS011;64562;55.662;37.300;2022-12-08T03:34:59;42.78;;;17.85;;
75887;SDS011;64562;55.662;37.300;2022-12-08T03:37:26;27.15;;;16.08;;
75887;SDS011;64562;55.662;37.300;2022-12-08T03:39:53;29.80;;;17.20;;
75887;SDS011;64562;55.662;37.300;2022-12-08T03:42:21;31.92;;;17.33;;
75887;SDS011;64562;55.662;37.300;2022-12-08T03:44:48;33.85;;;16.48;;
75887;SDS011;64562;55.662;37.300;2022-12-08T03:47:14;32.75;;;16.67;;
75887;SDS011;64562;55.662;37.300;2022-12-08T03:49:41;33.67;;;14.98;;
75887;SDS011;64562;55.662;37.300;2022-12-08T03:52:08;29.88;;;15.27;;
75887;SDS011;64562;55.662;37.300;2022-12-08T03:54:34;29.15;;;14.68;;
75887;SDS011;64562;55.662;37.300;2022-12-08T03:57:01;27.38;;;14.82;;
75887;SDS011;64562;55.662;37.300;2022-12-08T03:59:29;30.35;;;15.35;;
75887;SDS011;64562;55.662;37.300;2022-12-08T04:01:55;26.80;;;13.32;;
75887;SDS011;64562;55.662;37.300;2022-12-08T04:04:22;30.00;;;12.88;;
75887;SDS011;64562;55.662;37.300;2022-12-08T04:06:49;23.45;;;13.27;;
75887;SDS011;64562;55.662;37.300;2022-12-08T04:09:15;32.25;;;13.73;;
75887;SDS011;64562;55.662;37.300;2022-12-08T04:11:42;22.50;;;12.50;;
75887;SDS011;64562;55.662;37.300;2022-12-08T04:14:09;22.60;;;11.80;;
75887;SDS011;64562;55.662;37.300;2022-12-08T04:16:37;22.25;;;11.77;;
75887;SDS011;64562;55.662;37.300;2022-12-08T04:19:03;21.40;;;12.05;;
75887;SDS011;64562;55.662;37.300;2022-12-08T04:21:30;20.05;;;12.55;;
75887;SDS011;64562;55.662;37.300;2022-12-08T04:23:57;21.52;;;12.25;;
75887;SDS011;64562;55.662;37.300;2022-12-08T04:26:23;22.48;;;12.85;;
75887;SDS011;64562;55.662;37.300;2022-12-08T04:28:50;17.50;;;10.98;;
75887;SDS011;64562;55.662;37.300;2022-12-08T04:31:16;21.58;;;11.85;;
75887;SDS011;64562;55.662;37.300;2022-12-08T04:33:44;20.27;;;10.88;;
75887;SDS011;64562;55.662;37.300;2022-12-08T04:36:11;19.70;;;11.35;;
75887;SDS011;64562;55.662;37.300;2022-12-08T04:38:38;18.58;;;11.48;;
75887;SDS011;64562;55.662;37.300;2022-12-08T04:41:04;19.15;;;10.63;;
75887;SDS011;64562;55.662;37.300;2022-12-08T04:43:31;19.20;;;10.90;;
75887;SDS011;64562;55.662;37.300;2022-12-08T04:45:57;22.55;;;10.85;;
75887;SDS011;64562;55.662;37.300;2022-12-08T04:48:24;20.40;;;11.00;;
75887;SDS011;64562;55.662;37.300;2022-12-08T04:50:52;19.80;;;10.35;;
75887;SDS011;64562;55.662;37.300;2022-12-08T04:53:19;16.88;;;10.27;;
75887;SDS011;64562;55.662;37.300;2022-12-08T04:55:45;15.85;;;9.85;;
75887;SDS011;64562;55.662;37.300;2022-12-08T04:58:14;17.45;;;9.88;;
75887;SDS011;64562;55.662;37.300;2022-12-08T05:00:40;16.08;;;9.80;;
75887;SDS011;64562;55.662;37.300;2022-12-08T05:03:07;15.15;;;9.55;;
75887;SDS011;64562;55.662;37.300;2022-12-08T05:05:34;16.58;;;9.43;;
75887;SDS011;64562;55.662;37.300;2022-12-08T05:08:02;15.48;;;9.07;;
75887;SDS011;64562;55.662;37.300;2022-12-08T05:10:29;16.55;;;9.43;;
75887;SDS011;64562;55.662;37.300;2022-12-08T05:12:56;17.30;;;9.15;;
75887;SDS011;64562;55.662;37.300;2022-12-08T05:15:23;14.65;;;9.20;;
75887;SDS011;64562;55.662;37.300;2022-12-08T05:17:49;11.75;;;7.97;;
75887;SDS011;64562;55.662;37.300;2022-12-08T05:20:16;14.05;;;8.35;;
75887;SDS011;64562;55.662;37.300;2022-12-08T05:22:43;16.55;;;8.60;;
75887;SDS011;64562;55.662;37.300;2022-12-08T05:25:11;13.18;;;8.02;;
75887;SDS011;64562;55.662;37.300;2022-12-08T05:27:37;15.15;;;9.10;;
75887;SDS011;64562;55.662;37.300;2022-12-08T05:30:04;13.52;;;8.25;;
75887;SDS011;64562;55.662;37.300;2022-12-08T05:32:31;12.98;;;8.13;;
75887;SDS011;64562;55.662;37.300;2022-12-08T05:34:58;13.07;;;7.50;;
75887;SDS011;64562;55.662;37.300;2022-12-08T05:37:24;14.00;;;8.00;;
75887;SDS011;64562;55.662;37.300;2022-12-08T05:39:51;14.02;;;9.10;;
75887;SDS011;64562;55.662;37.300;2022-12-08T05:42:19;13.18;;;7.65;;
75887;SDS011;64562;55.662;37.300;2022-12-08T05:44:46;13.88;;;7.75;;
75887;SDS011;64562;55.662;37.300;2022-12-08T05:47:12;11.77;;;7.53;;
75887;SDS011;64562;55.662;37.300;2022-12-08T05:49:39;11.95;;;7.40;;
75887;SDS011;64562;55.662;37.300;2022-12-08T05:52:05;11.30;;;6.85;;
75887;SDS011;64562;55.662;37.300;2022-12-08T05:54:32;11.95;;;7.15;;
75887;SDS011;64562;55.662;37.300;2022-12-08T05:56:59;11.18;;;6.63;;
75887;SDS011;64562;55.662;37.300;2022-12-08T05:59:27;12.05;;;6.85;;
75887;SDS011;64562;55.662;37.300;2022-12-08T06:01:54;11.60;;;6.43;;
75887;SDS011;64562;55.662;37.300;2022-12-08T06:04:20;10.23;;;6.18;;
75887;SDS011;64562;55.662;37.300;2022-12-08T06:06:47;9.93;;;6.50;;
75887;SDS011;64562;55.662;37.300;2022-12-08T06:09:14;10.30;;;6.53;;
75887;SDS011;64562;55.662;37.300;2022-12-08T06:11:41;10.30;;;6.35;;
75887;SDS011;64562;55.662;37.300;2022-12-08T06:14:09;10.45;;;6.78;;
75887;SDS011;64562;55.662;37.300;2022-12-08T06:16:37;10.45;;;6.32;;
75887;SDS011;64562;55.662;37.300;2022-12-08T06:19:03;10.07;;;6.15;;
75887;SDS011;64562;55.662;37.300;2022-12-08T06:21:30;8.55;;;5.25;;
75887;SDS011;64562;55.662;37.300;2022-12-08T06:23:57;9.30;;;6.00;;
75887;SDS011;64562;55.662;37.300;2022-12-08T06:26:23;8.57;;;5.50;;
75887;SDS011;64562;55.662;37.300;2022-12-08T06:28:50;8.85;;;5.57;;
75887;SDS011;64562;55.662;37.300;2022-12-08T06:31:18;11.57;;;5.88;;
75887;SDS011;64562;55.662;37.300;2022-12-08T06:33:46;9.55;;;5.95;;
75887;SDS011;64562;55.662;37.300;2022-12-08T06:36:13;9.70;;;6.20;;
75887;SDS011;64562;55.662;37.300;2022-12-08T06:38:40;11.82;;;6.18;;
75887;SDS011;64562;55.662;37.300;2022-12-08T06:41:07;13.35;;;6.63;;
75887;SDS011;64562;55.662;37.300;2022-12-08T06:43:33;15.18;;;7.25;;
75887;SDS011;64562;55.662;37.300;2022-12-08T06:46:00;12.98;;;6.35;;
75887;SDS011;64562;55.662;37.300;2022-12-08T06:48:27;11.63;;;6.35;;
75887;SDS011;64562;55.662;37.300;2022-12-08T06:50:55;10.52;;;6.15;;
75887;SDS011;64562;55.662;37.300;2022-12-08T06:53:22;11.48;;;6.03;;
75887;SDS011;64562;55.662;37.300;2022-12-08T06:55:50;12.82;;;6.32;;
75887;SDS011;64562;55.662;37.300;2022-12-08T06:58:17;10.10;;;5.78;;
75887;SDS011;64562;55.662;37.300;2022-12-08T07:00:44;9.02;;;5.45;;
75887;SDS011;64562;55.662;37.300;2022-12-08T07:03:11;10.68;;;6.07;;
75887;SDS011;64562;55.662;37.300;2022-12-08T07:05:38;9.63;;;5.50;;
75887;SDS011;64562;55.662;37.300;2022-12-08T07:08:07;8.32;;;5.45;;
75887;SDS011;64562;55.662;37.300;2022-12-08T07:10:34;8.77;;;5.28;;
75887;SDS011;64562;55.662;37.300;2022-12-08T07:13:00;10.15;;;5.35;;
75887;SDS011;64562;55.662;37.300;2022-12-08T07:15:27;9.20;;;5.32;;
75887;SDS011;64562;55.662;37.300;2022-12-08T07:17:53;10.02;;;5.30;;
75887;SDS011;64562;55.662;37.300;2022-12-08T07:20:20;8.48;;;4.75;;
75887;SDS011;64562;55.662;37.300;2022-12-08T07:22:47;6.78;;;4.75;;
75887;SDS011;64562;55.662;37.300;2022-12-08T07:25:15;7.63;;;4.80;;
75887;SDS011;64562;55.662;37.300;2022-12-08T07:27:42;8.52;;;5.10;;
75887;SDS011;64562;55.662;37.300;2022-12-08T07:30:09;6.82;;;4.82;;
75887;SDS011;64562;55.662;37.300;2022-12-08T07:32:36;9.00;;;4.72;;
75887;SDS011;64562;55.662;37.300;2022-12-08T07:35:03;10.88;;;5.05;;
75887;SDS011;64562;55.662;37.300;2022-12-08T07:37:31;8.77;;;4.88;;
75887;SDS011;64562;55.662;37.300;2022-12-08T07:39:58;6.80;;;3.83;;
75887;SDS011;64562;55.662;37.300;2022-12-08T07:42:26;7.72;;;4.75;;
75887;SDS011;64562;55.662;37.300;2022-12-08T07:44:52;8.00;;;4.35;;
75887;SDS011;64562;55.662;37.300;2022-12-08T07:47:19;7.07;;;4.57;;
75887;SDS011;64562;55.662;37.300;2022-12-08T07:49:46;8.43;;;3.88;;
75887;SDS011;64562;55.662;37.300;2022-12-08T07:52:12;7.10;;;4.50;;
75887;SDS011;64562;55.662;37.300;2022-12-08T07:54:39;8.48;;;4.07;;
75887;SDS011;64562;55.662;37.300;2022-12-08T07:57:06;6.88;;;4.20;;
75887;SDS011;64562;55.662;37.300;2022-12-08T07:59:35;7.95;;;4.40;;
75887;SDS011;64562;55.662;37.300;2022-12-08T08:02:01;7.53;;;4.25;;
75887;SDS011;64562;55.662;37.300;2022-12-08T08:04:28;6.80;;;4.20;;
75887;SDS011;64562;55.662;37.300;2022-12-08T08:06:55;8.02;;;4.00;;
75887;SDS011;64562;55.662;37.300;2022-12-08T08:09:21;6.35;;;3.80;;
75887;SDS011;64562;55.662;37.300;2022-12-08T08:11:48;6.43;;;3.65;;
75887;SDS011;64562;55.662;37.300;2022-12-08T08:14:14;6.07;;;3.50;;
75887;SDS011;64562;55.662;37.300;2022-12-08T08:16:42;5.13;;;3.38;;
75887;SDS011;64562;55.662;37.300;2022-12-08T08:19:11;6.88;;;3.90;;
75887;SDS011;64562;55.662;37.300;2022-12-08T08:21:38;6.55;;;3.60;;
75887;SDS011;64562;55.662;37.300;2022-12-08T08:24:04;5.60;;;3.20;;
75887;SDS011;64562;55.662;37.300;2022-12-08T08:26:31;6.40;;;3.38;;
75887;SDS011;64562;55.662;37.300;2022-12-08T08:28:58;6.30;;;3.38;;
75887;SDS011;64562;55.662;37.300;2022-12-08T08:31:24;6.00;;;3.50;;
75887;SDS011;64562;55.662;37.300;2022-12-08T08:33:54;6.07;;;3.20;;
75887;SDS011;64562;55.662;37.300;2022-12-08T08:36:21;5.63;;;3.15;;
75887;SDS011;64562;55.662;37.300;2022-12-08T08:38:47;4.60;;;2.95;;
75887;SDS011;64562;55.662;37.300;2022-12-08T08:41:14;6.00;;;3.08;;
75887;SDS011;64562;55.662;37.300;2022-12-08T08:43:40;6.05;;;3.45;;
75887;SDS011;64562;55.662;37.300;2022-12-08T08:46:07;7.05;;;3.42;;
75887;SDS011;64562;55.662;37.300;2022-12-08T08:48:35;6.97;;;3.35;;
75887;SDS011;64562;55.662;37.300;2022-12-08T08:51:07;5.07;;;3.10;;
75887;SDS011;64562;55.662;37.300;2022-12-08T08:53:34;4.90;;;3.30;;
75887;SDS011;64562;55.662;37.300;2022-12-08T08:56:01;5.82;;;3.30;;
75887;SDS011;64562;55.662;37.300;2022-12-08T08:58:29;4.70;;;2.85;;
75887;SDS011;64562;55.662;37.300;2022-12-08T09:00:56;5.68;;;2.75;;
75887;SDS011;64562;55.662;37.300;2022-12-08T09:03:22;4.95;;;3.00;;
75887;SDS011;64562;55.662;37.300;2022-12-08T09:05:49;5.28;;;2.95;;
75887;SDS011;64562;55.662;37.300;2022-12-08T09:08:17;5.50;;;2.90;;
75887;SDS011;64562;55.662;37.300;2022-12-08T09:10:43;5.55;;;2.92;;
75887;SDS011;64562;55.662;37.300;2022-12-08T09:13:10;4.70;;;2.85;;
75887;SDS011;64562;55.662;37.300;2022-12-08T09:15:37;4.70;;;2.75;;
75887;SDS011;64562;55.662;37.300;2022-12-08T09:18:03;5.03;;;3.05;;
75887;SDS011;64562;55.662;37.300;2022-12-08T09:20:30;4.82;;;2.60;;
75887;SDS011;64562;55.662;37.300;2022-12-08T09:22:57;4.43;;;2.97;;
75887;SDS011;64562;55.662;37.300;2022-12-08T09:25:25;5.35;;;3.00;;
75887;SDS011;64562;55.662;37.300;2022-12-08T09:27:52;5.18;;;2.72;;
75887;SDS011;64562;55.662;37.300;2022-12-08T09:30:18;5.18;;;2.72;;
75887;SDS011;64562;55.662;37.300;2022-12-08T09:32:45;4.57;;;2.85;;
75887;SDS011;64562;55.662;37.300;2022-12-08T09:35:12;5.35;;;2.80;;
75887;SDS011;64562;55.662;37.300;2022-12-08T09:37:38;4.40;;;2.72;;
75887;SDS011;64562;55.662;37.300;2022-12-08T09:40:05;5.63;;;3.10;;
75887;SDS011;64562;55.662;37.300;2022-12-08T09:42:34;5.32;;;2.85;;
75887;SDS011;64562;55.662;37.300;2022-12-08T09:45:03;4.22;;;2.33;;
75887;SDS011;64562;55.662;37.300;2022-12-08T09:47:31;4.97;;;3.00;;
75887;SDS011;64562;55.662;37.300;2022-12-08T09:49:59;4.45;;;2.40;;
75887;SDS011;64562;55.662;37.300;2022-12-08T09:52:28;4.05;;;2.30;;
75887;SDS011;64562;55.662;37.300;2022-12-08T09:54:55;4.50;;;2.30;;
75887;SDS011;64562;55.662;37.300;2022-12-08T09:57:24;4.15;;;2.53;;
75887;SDS011;64562;55.662;37.300;2022-12-08T09:59:53;4.65;;;2.53;;
75887;SDS011;64562;55.662;37.300;2022-12-08T10:02:23;4.38;;;2.58;;
75887;SDS011;64562;55.662;37.300;2022-12-08T10:04:50;4.65;;;2.40;;
75887;SDS011;64562;55.662;37.300;2022-12-08T10:07:20;4.22;;;2.60;;
75887;SDS011;64562;55.662;37.300;2022-12-08T10:09:51;5.90;;;2.40;;
75887;SDS011;64562;55.662;37.300;2022-12-08T10:12:23;5.07;;;2.50;;
75887;SDS011;64562;55.662;37.300;2022-12-08T10:14:51;4.82;;;2.30;;
75887;SDS011;64562;55.662;37.300;2022-12-08T10:17:23;3.97;;;2.25;;
75887;SDS011;64562;55.662;37.300;2022-12-08T10:19:53;4.28;;;2.72;;
75887;SDS011;64562;55.662;37.300;2022-12-08T10:22:21;5.88;;;2.63;;
75887;SDS011;64562;55.662;37.300;2022-12-08T10:24:53;3.42;;;2.30;;
75887;SDS011;64562;55.662;37.300;2022-12-08T10:27:21;5.95;;;2.80;;
75887;SDS011;64562;55.662;37.300;2022-12-08T10:29:47;3.78;;;2.13;;
75887;SDS011;64562;55.662;37.300;2022-12-08T10:32:16;8.73;;;2.65;;
75887;SDS011;64562;55.662;37.300;2022-12-08T10:35:01;3.95;;;2.58;;
75887;SDS011;64562;55.662;37.300;2022-12-08T10:37:27;4.07;;;2.40;;
75887;SDS011;64562;55.662;37.300;2022-12-08T10:39:58;3.47;;;2.25;;
75887;SDS011;64562;55.662;37.300;2022-12-08T10:42:25;5.82;;;2.17;;
75887;SDS011;64562;55.662;37.300;2022-12-08T10:44:56;3.58;;;2.38;;
75887;SDS011;64562;55.662;37.300;2022-12-08T10:47:24;6.75;;;2.63;;
75887;SDS011;64562;55.662;37.300;2022-12-08T10:52:35;4.78;;;2.20;;
75887;SDS011;64562;55.662;37.300;2022-12-08T10:55:03;5.20;;;2.35;;
75887;SDS011;64562;55.662;37.300;2022-12-08T10:57:29;4.30;;;2.50;;
75887;SDS011;64562;55.662;37.300;2022-12-08T10:59:56;5.07;;;2.58;;
75887;SDS011;64562;55.662;37.300;2022-12-08T11:02:22;5.07;;;2.63;;
75887;SDS011;64562;55.662;37.300;2022-12-08T11:04:55;3.95;;;2.40;;
75887;SDS011;64562;55.662;37.300;2022-12-08T11:07:23;3.50;;;2.40;;
75887;SDS011;64562;55.662;37.300;2022-12-08T11:09:53;4.20;;;2.40;;
75887;SDS011;64562;55.662;37.300;2022-12-08T11:12:22;3.33;;;2.03;;
75887;SDS011;64562;55.662;37.300;2022-12-08T11:14:54;4.20;;;2.10;;
75887;SDS011;64562;55.662;37.300;2022-12-08T11:17:24;5.03;;;2.30;;
75887;SDS011;64562;55.662;37.300;2022-12-08T11:19:56;4.00;;;2.30;;
75887;SDS011;64562;55.662;37.300;2022-12-08T11:22:24;4.38;;;2.60;;
75887;SDS011;64562;55.662;37.300;2022-12-08T11:25:00;5.80;;;2.50;;
75887;SDS011;64562;55.662;37.300;2022-12-08T11:27:27;3.83;;;2.38;;
75887;SDS011;64562;55.662;37.300;2022-12-08T11:29:53;3.70;;;2.28;;
75887;SDS011;64562;55.662;37.300;2022-12-08T11:32:20;4.15;;;2.40;;
75887;SDS011;64562;55.662;37.300;2022-12-08T11:34:49;4.70;;;2.40;;
75887;SDS011;64562;55.662;37.300;2022-12-08T11:37:17;4.68;;;2.45;;
75887;SDS011;64562;55.662;37.300;2022-12-08T11:39:45;5.63;;;2.30;;
75887;SDS011;64562;55.662;37.300;2022-12-08T11:42:14;4.13;;;2.05;;
75887;SDS011;64562;55.662;37.300;2022-12-08T11:44:45;3.80;;;2.35;;
75887;SDS011;64562;55.662;37.300;2022-12-08T11:47:15;8.57;;;2.50;;
75887;SDS011;64562;55.662;37.300;2022-12-08T11:49:44;5.22;;;2.50;;
75887;SDS011;64562;55.662;37.300;2022-12-08T11:52:16;3.85;;;2.05;;
75887;SDS011;64562;55.662;37.300;2022-12-08T11:54:44;2.72;;;2.08;;
75887;SDS011;64562;55.662;37.300;2022-12-08T11:57:12;5.32;;;2.22;;
75887;SDS011;64562;55.662;37.300;2022-12-08T11:59:42;3.60;;;2.28;;
75887;SDS011;64562;55.662;37.300;2022-12-08T12:02:11;4.05;;;2.00;;
75887;SDS011;64562;55.662;37.300;2022-12-08T12:04:40;3.53;;;2.03;;
75887;SDS011;64562;55.662;37.300;2022-12-08T12:07:13;6.97;;;2.35;;
75887;SDS011;64562;55.662;37.300;2022-12-08T12:09:56;3.55;;;2.05;;
75887;SDS011;64562;55.662;37.300;2022-12-08T12:12:29;3.25;;;1.92;;
75887;SDS011;64562;55.662;37.300;2022-12-08T12:15:21;3.55;;;2.05;;
75887;SDS011;64562;55.662;37.300;2022-12-08T12:17:54;3.75;;;2.17;;
75887;SDS011;64562;55.662;37.300;2022-12-08T12:20:23;4.40;;;2.05;;
75887;SDS011;64562;55.662;37.300;2022-12-08T12:22:51;5.88;;;2.25;;
75887;SDS011;64562;55.662;37.300;2022-12-08T12:25:19;4.68;;;2.08;;
75887;SDS011;64562;55.662;37.300;2022-12-08T12:27:47;3.00;;;1.77;;
75887;SDS011;64562;55.662;37.300;2022-12-08T12:30:20;3.28;;;2.00;;
75887;SDS011;64562;55.662;37.300;2022-12-08T12:32:48;3.90;;;2.08;;
75887;SDS011;64562;55.662;37.300;2022-12-08T12:35:20;4.22;;;2.25;;
75887;SDS011;64562;55.662;37.300;2022-12-08T12:37:47;3.63;;;2.10;;
75887;SDS011;64562;55.662;37.300;2022-12-08T12:40:15;4.95;;;2.35;;
75887;SDS011;64562;55.662;37.300;2022-12-08T12:42:43;3.45;;;2.30;;
75887;SDS011;64562;55.662;37.300;2022-12-08T12:48:18;3.60;;;1.98;;
75887;SDS011;64562;55.662;37.300;2022-12-08T12:50:46;4.03;;;1.88;;
75887;SDS011;64562;55.662;37.300;2022-12-08T12:55:58;4.38;;;2.10;;
75887;SDS011;64562;55.662;37.300;2022-12-08T13:04:05;6.20;;;2.10;;
75887;SDS011;64562;55.662;37.300;2022-12-08T13:06:34;7.03;;;2.20;;
75887;SDS011;64562;55.662;37.300;2022-12-08T13:09:01;6.13;;;2.03;;
75887;SDS011;64562;55.662;37.300;2022-12-08T13:11:28;6.88;;;2.38;;
75887;SDS011;64562;55.662;37.300;2022-12-08T13:13:56;9.98;;;2.72;;
75887;SDS011;64562;55.662;37.300;2022-12-08T13:16:24;6.05;;;2.33;;
75887;SDS011;64562;55.662;37.300;2022-12-08T13:18:51;7.05;;;2.65;;
75887;SDS011;64562;55.662;37.300;2022-12-08T13:21:23;8.93;;;2.13;;
75887;SDS011;64562;55.662;37.300;2022-12-08T13:24:11;5.22;;;2.88;;
75887;SDS011;64562;55.662;37.300;2022-12-08T13:26:42;5.15;;;2.20;;
75887;SDS011;64562;55.662;37.300;2022-12-08T13:29:13;6.43;;;2.33;;
75887;SDS011;64562;55.662;37.300;2022-12-08T13:31:40;5.75;;;2.35;;
75887;SDS011;64562;55.662;37.300;2022-12-08T13:34:11;5.70;;;2.30;;
75887;SDS011;64562;55.662;37.300;2022-12-08T13:36:40;7.63;;;2.35;;
75887;SDS011;64562;55.662;37.300;2022-12-08T13:39:10;7.50;;;2.55;;
75887;SDS011;64562;55.662;37.300;2022-12-08T13:41:42;8.05;;;2.40;;
75887;SDS011;64562;55.662;37.300;2022-12-08T13:44:11;4.82;;;2.53;;
75887;SDS011;64562;55.662;37.300;2022-12-08T13:46:41;6.47;;;2.70;;
75887;SDS011;64562;55.662;37.300;2022-12-08T13:49:10;7.82;;;3.22;;
75887;SDS011;64562;55.662;37.300;2022-12-08T13:54:08;12.32;;;4.20;;
75887;SDS011;64562;55.662;37.300;2022-12-08T13:56:38;10.85;;;4.35;;
75887;SDS011;64562;55.662;37.300;2022-12-08T13:59:06;10.35;;;5.00;;
75887;SDS011;64562;55.662;37.300;2022-12-08T14:01:34;10.40;;;5.47;;
75887;SDS011;64562;55.662;37.300;2022-12-08T14:04:04;11.98;;;5.50;;
75887;SDS011;64562;55.662;37.300;2022-12-08T14:06:34;11.73;;;6.35;;
75887;SDS011;64562;55.662;37.300;2022-12-08T14:11:30;16.90;;;6.45;;
75887;SDS011;64562;55.662;37.300;2022-12-08T14:14:02;16.83;;;7.47;;
75887;SDS011;64562;55.662;37.300;2022-12-08T14:16:32;15.82;;;6.78;;
75887;SDS011;64562;55.662;37.300;2022-12-08T14:19:05;12.25;;;6.55;;
75887;SDS011;64562;55.662;37.300;2022-12-08T14:21:32;14.57;;;6.68;;
75887;SDS011;64562;55.662;37.300;2022-12-08T14:24:01;14.23;;;7.25;;
75887;SDS011;64562;55.662;37.300;2022-12-08T14:26:31;16.88;;;7.40;;
75887;SDS011;64562;55.662;37.300;2022-12-08T14:28:59;14.52;;;7.43;;
75887;SDS011;64562;55.662;37.300;2022-12-08T14:31:26;15.45;;;7.68;;
75887;SDS011;64562;55.662;37.300;2022-12-08T14:33:53;14.23;;;7.95;;
75887;SDS011;64562;55.662;37.300;2022-12-08T14:36:20;15.50;;;8.23;;
75887;SDS011;64562;55.662;37.300;2022-12-08T14:38:46;12.77;;;7.72;;
75887;SDS011;64562;55.662;37.300;2022-12-08T14:41:13;15.60;;;7.25;;
75887;SDS011;64562;55.662;37.300;2022-12-08T14:43:41;15.82;;;8.52;;
75887;SDS011;64562;55.662;37.300;2022-12-08T14:46:17;20.00;;;9.30;;
75887;SDS011;64562;55.662;37.300;2022-12-08T14:51:13;19.58;;;9.52;;
75887;SDS011;64562;55.662;37.300;2022-12-08T14:53:41;20.65;;;10.48;;
75887;SDS011;64562;55.662;37.300;2022-12-08T14:56:12;22.45;;;10.52;;
75887;SDS011;64562;55.662;37.300;2022-12-08T14:58:43;19.73;;;10.57;;
75887;SDS011;64562;55.662;37.300;2022-12-08T15:01:11;22.92;;;11.50;;